createdAt,value
2022-11-02T00:01:21.488Z,82.98
2022-11-02T00:06:23.617Z,83.09
2022-11-02T00:11:25.585Z,83.70
2022-11-02T00:16:27.440Z,83.31
2022-11-02T00:21:29.640Z,83.19
2022-11-02T00:26:34.179Z,83.29
2022-11-02T00:31:36.115Z,82.86
2022-11-02T00:36:37.956Z,83.22
2022-11-02T00:41:40.024Z,83.46
2022-11-02T00:46:42.012Z,83.27
2022-11-02T00:51:44.643Z,82.91
2022-11-02T00:56:46.639Z,82.99
2022-11-02T01:01:49.817Z,82.81
2022-11-02T01:06:52.033Z,83.02
2022-11-02T01:11:54.874Z,82.84
2022-11-02T01:16:58.159Z,83.26
2022-11-02T01:22:00.185Z,83.35
2022-11-02T01:27:02.223Z,83.38
2022-11-02T01:32:04.270Z,83.29
2022-11-02T01:37:06.268Z,83.10
2022-11-02T01:42:20.186Z,83.71
2022-11-02T01:47:25.100Z,82.81
2022-11-02T01:52:32.289Z,83.21
2022-11-02T01:57:36.494Z,82.99
2022-11-02T02:07:58.431Z,83.47
2022-11-02T02:13:00.576Z,83.58
2022-11-02T02:18:11.899Z,83.32
2022-11-02T02:23:51.122Z,83.87
2022-11-02T02:28:55.881Z,83.96
2022-11-02T02:34:07.833Z,83.96
2022-11-02T02:39:31.545Z,83.32
2022-11-02T02:44:37.688Z,83.70
2022-11-02T02:49:45.179Z,83.74
2022-11-02T02:54:50.305Z,83.57
2022-11-02T02:59:52.397Z,83.70
2022-11-02T03:04:54.518Z,83.20
2022-11-02T03:10:35.352Z,82.96
2022-11-02T03:15:42.084Z,83.21
2022-11-02T03:21:06.713Z,83.54
2022-11-02T03:26:26.431Z,83.66
2022-11-02T03:31:40.813Z,83.10
2022-11-02T03:36:54.488Z,83.07
2022-11-02T03:42:01.037Z,83.62
2022-11-02T03:47:04.338Z,83.69
2022-11-02T03:52:11.761Z,83.26
2022-11-02T03:57:20.318Z,83.48
2022-11-02T04:02:22.532Z,82.76
2022-11-02T04:07:28.922Z,83.13
2022-11-02T04:12:49.510Z,83.75
2022-11-02T04:18:10.294Z,83.29
2022-11-02T04:23:30.898Z,84.07
2022-11-02T04:28:32.894Z,82.96
2022-11-02T04:33:34.983Z,83.85
2022-11-02T04:38:43.012Z,83.67
2022-11-02T04:43:44.829Z,83.83
2022-11-02T04:48:46.898Z,84.00
2022-11-02T04:53:49.995Z,83.76
2022-11-02T04:58:54.040Z,83.31
2022-11-02T05:03:56.868Z,83.99
2022-11-02T05:08:58.809Z,83.36
2022-11-02T05:14:00.818Z,84.12
2022-11-02T05:19:04.529Z,84.05
2022-11-02T05:24:08.976Z,83.84
2022-11-02T05:29:10.775Z,83.92
2022-11-02T05:34:12.808Z,84.17
2022-11-02T05:39:14.591Z,83.97
2022-11-02T05:44:16.695Z,84.62
2022-11-02T05:49:18.623Z,83.72
2022-11-02T05:54:21.030Z,84.35
2022-11-02T05:59:23.081Z,84.56
2022-11-02T06:04:25.121Z,84.07
2022-11-02T06:09:28.045Z,84.66
2022-11-02T06:14:30.040Z,84.91
2022-11-02T06:19:31.871Z,84.80
2022-11-02T06:24:33.917Z,84.28
2022-11-02T06:29:35.769Z,85.34
2022-11-02T06:34:37.735Z,86.15
2022-11-02T06:39:39.635Z,86.77
2022-11-02T06:44:42.335Z,86.28
2022-11-02T06:49:44.262Z,85.76
2022-11-02T06:54:46.239Z,85.76
2022-11-02T06:59:53.663Z,85.39
2022-11-02T07:04:56.035Z,85.50
2022-11-02T07:09:57.920Z,86.22
2022-11-02T07:15:00.060Z,86.04
2022-11-02T07:20:02.090Z,86.72
2022-11-02T07:25:04.470Z,85.65
2022-11-02T07:30:07.840Z,85.72
2022-11-02T07:35:14.245Z,86.66
2022-11-02T07:40:16.285Z,86.58
2022-11-02T07:45:18.090Z,86.07
2022-11-02T07:50:22.488Z,86.83
2022-11-02T07:55:27.269Z,87.20
2022-11-02T08:00:34.940Z,86.75
2022-11-02T08:05:39.632Z,86.52
2022-11-02T08:10:43.442Z,86.17
2022-11-02T08:15:48.940Z,86.91
2022-11-02T08:20:51.183Z,87.08
2022-11-02T08:25:54.566Z,86.46
2022-11-02T08:30:58.502Z,86.48
2022-11-02T08:36:05.164Z,87.46
2022-11-02T08:41:07.262Z,87.16
2022-11-02T08:46:14.939Z,86.69
2022-11-02T08:51:18.016Z,86.36
2022-11-02T08:56:20.095Z,86.83
2022-11-02T09:01:22.171Z,86.44
2022-11-02T09:06:24.360Z,86.71
2022-11-02T09:11:26.375Z,86.85
2022-11-02T09:16:28.397Z,86.46
2022-11-02T09:21:30.410Z,86.02
2022-11-02T09:26:32.416Z,86.14
2022-11-02T09:31:34.568Z,86.20
2022-11-02T09:36:36.587Z,86.37
2022-11-02T09:41:58.887Z,86.67
2022-11-02T09:47:55.916Z,86.21
2022-11-02T09:52:32.027Z,86.23
2022-11-02T09:57:34.309Z,86.88
2022-11-02T10:02:55.979Z,85.99
2022-11-02T10:08:00.992Z,85.99
2022-11-02T10:13:09.172Z,86.08
2022-11-02T10:18:19.233Z,86.29
2022-11-02T10:23:42.741Z,86.00
2022-11-02T10:28:48.933Z,85.97
2022-11-02T10:33:52.937Z,85.81
2022-11-02T10:39:11.205Z,85.30
2022-11-02T10:44:25.360Z,85.04
2022-11-02T10:49:39.233Z,85.38
2022-11-02T10:54:41.063Z,84.55
2022-11-02T10:59:43.157Z,84.96
2022-11-02T11:04:45.164Z,85.17
2022-11-02T11:09:57.936Z,85.16
2022-11-02T11:20:39.239Z,84.26
2022-11-02T11:25:42.480Z,83.83
2022-11-02T11:31:00.423Z,83.74
2022-11-02T11:36:02.646Z,84.37
2022-11-02T11:41:05.262Z,83.86
2022-11-02T11:46:09.081Z,83.93
2022-11-02T11:51:31.855Z,84.41
2022-11-02T11:56:34.630Z,83.68
2022-11-02T12:01:40.646Z,83.63
2022-11-02T12:07:06.922Z,84.00
2022-11-02T12:12:29.221Z,83.92
2022-11-02T12:18:12.576Z,83.61
2022-11-02T12:23:32.531Z,83.43
2022-11-02T12:28:58.693Z,84.01
2022-11-02T12:34:57.615Z,83.05
2022-11-02T12:40:11.623Z,82.73
2022-11-02T12:45:27.000Z,82.86
2022-11-02T12:50:50.721Z,82.67
2022-11-02T12:55:56.428Z,82.39
2022-11-02T13:01:23.957Z,80.72
2022-11-02T13:06:37.291Z,80.31
2022-11-02T13:11:58.743Z,81.10
2022-11-02T13:17:10.014Z,80.74
2022-11-02T13:22:14.143Z,80.28
2022-11-02T13:27:38.808Z,79.89
2022-11-02T13:33:04.621Z,78.92
2022-11-02T13:38:12.968Z,78.51
2022-11-02T13:43:45.229Z,77.66
2022-11-02T13:49:14.010Z,74.81
2022-11-02T13:54:25.254Z,75.14
2022-11-02T13:59:43.082Z,74.65
2022-11-02T14:04:46.454Z,73.38
2022-11-02T14:09:48.711Z,73.57
2022-11-02T14:15:18.573Z,74.06
2022-11-02T14:20:49.205Z,75.04
2022-11-02T14:25:54.963Z,74.68
2022-11-02T14:31:05.902Z,73.95
2022-11-02T14:36:19.982Z,73.54
2022-11-02T14:41:59.484Z,71.25
2022-11-02T14:47:09.000Z,71.08
2022-11-02T14:52:21.512Z,72.93
2022-11-02T14:57:40.994Z,73.96
2022-11-02T15:02:44.025Z,73.68
2022-11-02T15:07:58.599Z,73.20
2022-11-02T15:13:19.013Z,73.42
2022-11-02T15:18:23.151Z,72.05
2022-11-02T15:23:31.698Z,71.53
2022-11-02T15:28:35.230Z,72.39
2022-11-02T15:33:44.638Z,71.99
2022-11-02T15:38:52.573Z,72.19
2022-11-02T15:44:03.555Z,72.31
2022-11-02T15:49:41.458Z,71.33
2022-11-02T15:55:08.224Z,71.50
2022-11-02T16:00:20.444Z,71.16
2022-11-02T16:05:24.880Z,71.53
2022-11-02T16:10:32.546Z,71.58
2022-11-02T16:15:34.589Z,72.01
2022-11-02T16:20:40.279Z,72.36
2022-11-02T16:25:46.734Z,72.31
2022-11-02T16:31:15.870Z,72.74
2022-11-02T16:36:27.908Z,72.68
2022-11-02T16:41:33.115Z,73.12
2022-11-02T16:46:48.277Z,73.27
2022-11-02T16:51:54.978Z,73.74
2022-11-02T16:57:07.157Z,73.91
2022-11-02T17:02:14.213Z,73.92
2022-11-02T17:07:30.460Z,74.24
2022-11-02T17:12:44.011Z,74.42
2022-11-02T17:17:46.534Z,74.66
2022-11-02T17:23:02.729Z,75.21
2022-11-02T17:28:33.809Z,75.54
2022-11-02T17:33:36.010Z,75.40
2022-11-02T17:38:38.695Z,75.78
2022-11-02T17:43:40.980Z,75.38
2022-11-02T17:48:43.019Z,75.97
2022-11-02T17:53:45.416Z,75.97
2022-11-02T17:58:47.684Z,75.90
2022-11-02T18:03:50.343Z,76.10
2022-11-02T18:09:11.521Z,76.14
2022-11-02T18:14:17.102Z,76.07
2022-11-02T18:19:19.383Z,76.14
2022-11-02T18:24:22.849Z,76.22
2022-11-02T18:29:25.356Z,76.43
2022-11-02T18:34:31.063Z,76.46
2022-11-02T18:39:33.568Z,76.46
2022-11-02T18:44:37.727Z,76.49
2022-11-02T18:49:40.688Z,77.03
2022-11-02T18:54:43.281Z,77.00
2022-11-02T18:59:46.091Z,76.37
2022-11-02T19:04:48.592Z,76.98
2022-11-02T19:09:56.465Z,76.85
2022-11-02T19:15:00.891Z,76.71
2022-11-02T19:20:04.038Z,76.55
2022-11-02T19:25:06.810Z,76.89
2022-11-02T19:30:13.823Z,75.81
2022-11-02T19:35:16.434Z,75.89
2022-11-02T19:40:19.132Z,75.31
2022-11-02T19:45:21.523Z,75.30
2022-11-02T19:50:24.038Z,75.17
2022-11-02T19:55:29.664Z,75.35
2022-11-02T20:00:31.898Z,75.42
2022-11-02T20:05:33.904Z,75.87
2022-11-02T20:10:35.891Z,75.44
2022-11-02T20:15:40.555Z,76.26
2022-11-02T20:20:43.733Z,76.19
2022-11-02T20:25:47.938Z,76.32
2022-11-02T20:30:50.691Z,75.93
2022-11-02T20:35:53.734Z,76.56
2022-11-02T20:40:58.626Z,77.10
2022-11-02T20:46:31.616Z,77.22
2022-11-02T20:51:25.744Z,77.15
2022-11-02T20:56:27.961Z,76.48
2022-11-02T21:01:30.372Z,76.66
2022-11-02T21:06:32.793Z,77.05
2022-11-02T21:11:53.379Z,77.24
2022-11-02T21:16:56.203Z,77.39
2022-11-02T21:22:00.033Z,76.72
2022-11-02T21:27:02.498Z,77.21
2022-11-02T21:32:04.674Z,76.46
2022-11-02T21:37:07.425Z,77.29
2022-11-02T21:42:09.448Z,77.04
2022-11-02T21:47:12.735Z,77.14
2022-11-02T21:52:14.731Z,76.93
2022-11-02T21:57:16.694Z,76.85
2022-11-02T22:02:19.221Z,76.55
2022-11-02T22:07:21.544Z,76.71
2022-11-02T22:12:49.437Z,76.50
2022-11-02T22:17:51.505Z,76.73
2022-11-02T22:22:53.527Z,76.86
2022-11-02T22:27:55.480Z,76.66
2022-11-02T22:32:57.490Z,76.35
2022-11-02T22:38:17.905Z,76.46
2022-11-02T22:43:19.882Z,76.86
2022-11-02T22:48:21.915Z,76.34
2022-11-02T22:53:25.129Z,76.30
2022-11-02T22:58:28.596Z,76.35
2022-11-02T23:03:32.137Z,76.35
2022-11-02T23:08:39.549Z,76.04
2022-11-02T23:13:42.015Z,76.34
2022-11-02T23:19:02.759Z,76.34
2022-11-02T23:24:23.355Z,76.18
2022-11-02T23:29:44.033Z,76.11
2022-11-02T23:35:04.768Z,76.26
2022-11-02T23:40:07.594Z,76.42
2022-11-02T23:45:10.250Z,75.91
2022-11-02T23:50:12.159Z,76.53
2022-11-02T23:55:34.278Z,76.14
